createdAt,value
2022-11-20T00:01:08.389Z,1.17
2022-11-20T00:03:36.322Z,1.73
2022-11-20T00:06:05.388Z,1.20
2022-11-20T00:08:33.294Z,1.45
2022-11-20T00:11:05.033Z,1.25
2022-11-20T00:13:33.154Z,1.30
2022-11-20T00:16:02.205Z,1.67
2022-11-20T00:18:32.316Z,1.30
2022-11-20T00:21:03.775Z,1.10
2022-11-20T00:23:31.875Z,1.40
2022-11-20T00:26:04.044Z,1.40
2022-11-20T00:28:31.988Z,1.23
2022-11-20T00:31:04.909Z,1.30
2022-11-20T00:33:34.660Z,1.20
2022-11-20T00:36:03.333Z,1.20
2022-11-20T00:38:31.601Z,1.45
2022-11-20T00:41:00.460Z,1.40
2022-11-20T00:43:28.729Z,1.20
2022-11-20T00:45:59.866Z,1.42
2022-11-20T00:48:28.534Z,1.70
2022-11-20T00:50:58.206Z,1.13
2022-11-20T00:53:26.803Z,1.20
2022-11-20T00:55:56.136Z,2.00
2022-11-20T00:58:24.349Z,1.45
2022-11-20T01:00:52.600Z,1.33
2022-11-20T01:03:26.681Z,1.42
2022-11-20T01:05:55.000Z,1.33
2022-11-20T01:08:24.267Z,1.58
2022-11-20T01:10:52.146Z,1.25
2022-11-20T01:13:37.340Z,4.47
2022-11-20T01:16:06.111Z,1.42
2022-11-20T01:18:34.091Z,1.35
2022-11-20T01:21:06.419Z,1.60
2022-11-20T01:23:36.842Z,1.52
2022-11-20T01:26:05.709Z,1.13
2022-11-20T01:28:34.090Z,1.10
2022-11-20T01:31:02.507Z,1.20
2022-11-20T01:33:30.701Z,1.35
2022-11-20T01:36:06.637Z,1.42
2022-11-20T01:38:35.965Z,1.20
2022-11-20T01:41:04.027Z,1.20
2022-11-20T01:43:30.988Z,1.40
2022-11-20T01:46:02.878Z,1.20
2022-11-20T01:48:36.577Z,1.30
2022-11-20T01:51:06.373Z,1.42
2022-11-20T01:53:38.575Z,1.20
2022-11-20T01:56:11.458Z,1.40
2022-11-20T01:58:43.621Z,1.40
2022-11-20T02:01:11.821Z,1.40
2022-11-20T02:03:39.848Z,1.30
2022-11-20T02:06:14.135Z,1.50
2022-11-20T02:08:43.411Z,1.50
2022-11-20T02:11:11.404Z,1.42
2022-11-20T02:13:44.418Z,1.50
2022-11-20T02:16:19.026Z,1.48
2022-11-20T02:18:48.157Z,1.20
2022-11-20T02:21:29.405Z,1.40
2022-11-20T02:24:16.016Z,1.63
2022-11-20T02:26:50.980Z,1.40
2022-11-20T02:29:25.360Z,1.23
2022-11-20T02:31:54.374Z,1.58
2022-11-20T02:34:22.277Z,1.17
2022-11-20T02:36:52.469Z,1.20
2022-11-20T02:39:22.948Z,1.42
2022-11-20T02:41:51.045Z,1.60
2022-11-20T02:44:18.950Z,1.23
2022-11-20T02:46:46.830Z,1.20
2022-11-20T02:49:14.780Z,1.20
2022-11-20T02:51:42.711Z,1.30
2022-11-20T02:54:10.633Z,1.20
2022-11-20T02:56:41.520Z,1.45
2022-11-20T02:59:09.632Z,1.20
2022-11-20T03:01:37.653Z,1.27
2022-11-20T03:04:05.969Z,1.30
2022-11-20T03:06:34.130Z,1.30
2022-11-20T03:09:02.051Z,1.30
2022-11-20T03:11:30.774Z,1.40
2022-11-20T03:14:00.310Z,1.63
2022-11-20T03:16:28.210Z,1.35
2022-11-20T03:18:56.119Z,1.48
2022-11-20T03:21:24.033Z,1.48
2022-11-20T03:23:51.954Z,1.45
2022-11-20T03:26:21.708Z,1.40
2022-11-20T03:28:50.919Z,1.45
2022-11-20T03:31:21.963Z,1.40
2022-11-20T03:33:50.377Z,1.40
2022-11-20T03:36:20.062Z,1.30
2022-11-20T03:38:48.661Z,1.75
2022-11-20T03:41:18.767Z,1.20
2022-11-20T03:43:50.083Z,1.35
2022-11-20T03:46:18.575Z,1.25
2022-11-20T03:48:51.648Z,1.42
2022-11-20T03:51:21.669Z,1.15
2022-11-20T03:53:50.711Z,1.30
2022-11-20T03:56:20.523Z,1.45
2022-11-20T03:58:48.410Z,1.42
2022-11-20T04:01:18.521Z,1.40
2022-11-20T04:03:48.202Z,1.30
2022-11-20T04:06:18.180Z,1.45
2022-11-20T04:08:50.994Z,1.23
2022-11-20T04:11:23.018Z,1.40
2022-11-20T04:13:52.803Z,1.35
2022-11-20T04:16:21.003Z,1.35
2022-11-20T04:18:54.143Z,1.77
2022-11-20T04:21:22.521Z,1.55
2022-11-20T04:23:50.795Z,1.38
2022-11-20T04:26:19.453Z,1.55
2022-11-20T04:28:47.383Z,1.50
2022-11-20T04:31:17.286Z,1.50
2022-11-20T04:33:45.377Z,1.43
2022-11-20T04:36:17.252Z,1.20
2022-11-20T04:38:45.715Z,1.50
2022-11-20T04:41:21.302Z,1.63
2022-11-20T04:43:50.398Z,1.50
2022-11-20T04:46:18.667Z,1.50
2022-11-20T04:48:46.984Z,1.20
2022-11-20T04:51:16.277Z,1.30
2022-11-20T04:53:44.389Z,1.60
2022-11-20T04:56:14.381Z,1.00
2022-11-20T04:58:42.483Z,1.10
2022-11-20T05:01:13.974Z,1.50
2022-11-20T05:03:42.799Z,1.20
2022-11-20T05:06:12.595Z,1.23
2022-11-20T05:08:42.417Z,1.20
2022-11-20T05:11:11.677Z,1.10
2022-11-20T05:13:40.044Z,1.20
2022-11-20T05:16:10.812Z,1.30
2022-11-20T05:18:39.720Z,1.40
2022-11-20T05:21:08.024Z,1.37
2022-11-20T05:23:36.590Z,1.50
2022-11-20T05:26:06.568Z,1.10
2022-11-20T05:28:35.520Z,1.37
2022-11-20T05:31:07.880Z,1.20
2022-11-20T05:33:36.729Z,1.23
2022-11-20T05:36:05.221Z,1.20
2022-11-20T05:38:33.440Z,1.40
2022-11-20T05:41:10.121Z,1.23
2022-11-20T05:43:39.796Z,1.47
2022-11-20T05:46:08.997Z,1.23
2022-11-20T05:48:37.686Z,0.97
2022-11-20T05:51:08.024Z,2.53
2022-11-20T05:53:36.638Z,1.30
2022-11-20T05:56:06.565Z,1.20
2022-11-20T05:58:36.040Z,1.50
2022-11-20T06:01:08.893Z,1.40
2022-11-20T06:03:36.847Z,1.20
2022-11-20T06:06:05.648Z,1.20
2022-11-20T06:08:33.608Z,1.80
2022-11-20T06:11:05.654Z,1.40
2022-11-20T06:13:40.612Z,2.97
2022-11-20T06:16:09.938Z,1.10
2022-11-20T06:18:37.861Z,1.00
2022-11-20T06:21:08.001Z,0.90
2022-11-20T06:23:37.053Z,0.90
2022-11-20T06:26:06.253Z,1.10
2022-11-20T06:28:35.826Z,1.20
2022-11-20T06:31:04.430Z,0.83
2022-11-20T06:33:32.367Z,1.20
2022-11-20T06:36:04.484Z,1.20
2022-11-20T06:38:35.368Z,0.90
2022-11-20T06:41:03.301Z,1.17
2022-11-20T06:43:31.660Z,1.07
2022-11-20T06:46:01.570Z,1.20
2022-11-20T06:48:30.470Z,1.20
2022-11-20T06:50:58.971Z,0.90
2022-11-20T06:53:26.939Z,1.10
2022-11-20T06:55:58.388Z,1.40
2022-11-20T06:58:29.277Z,1.17
2022-11-20T07:01:01.821Z,1.00
2022-11-20T07:03:30.099Z,1.50
2022-11-20T07:05:58.565Z,1.27
2022-11-20T07:08:26.890Z,1.30
2022-11-20T07:10:55.237Z,1.20
2022-11-20T07:13:23.149Z,1.30
2022-11-20T07:15:51.076Z,0.90
2022-11-20T07:18:20.348Z,1.10
2022-11-20T07:20:48.275Z,1.20
2022-11-20T07:23:16.206Z,1.20
2022-11-20T07:25:44.311Z,1.20
2022-11-20T07:28:12.328Z,1.50
2022-11-20T07:30:40.301Z,0.80
2022-11-20T07:33:08.185Z,1.10
2022-11-20T07:35:37.753Z,1.30
2022-11-20T07:38:05.693Z,0.90
2022-11-20T07:40:33.610Z,1.13
2022-11-20T07:43:01.519Z,1.30
2022-11-20T07:45:29.668Z,1.10
2022-11-20T07:47:57.577Z,1.00
2022-11-20T07:50:25.548Z,1.00
2022-11-20T07:53:01.809Z,0.70
2022-11-20T07:55:29.680Z,0.73
2022-11-20T07:57:57.906Z,0.70
2022-11-20T08:00:26.495Z,1.00
2022-11-20T08:02:55.116Z,1.00
2022-11-20T08:05:23.158Z,0.90
2022-11-20T08:07:51.321Z,0.70
2022-11-20T08:10:20.662Z,1.10
2022-11-20T08:13:07.610Z,1.13
2022-11-20T08:15:35.884Z,0.70
2022-11-20T08:18:31.619Z,0.60
2022-11-20T08:20:53.016Z,1.43
2022-11-20T08:23:20.942Z,0.80
2022-11-20T08:25:52.787Z,1.00
2022-11-20T08:28:22.335Z,0.73
2022-11-20T08:30:51.674Z,1.10
2022-11-20T08:33:20.050Z,0.70
2022-11-20T08:35:48.134Z,0.90
2022-11-20T08:38:16.038Z,0.67
2022-11-20T08:41:04.215Z,0.80
2022-11-20T08:43:33.489Z,0.50
2022-11-20T08:46:01.673Z,0.60
2022-11-20T08:48:29.568Z,0.60
2022-11-20T08:51:00.485Z,0.50
2022-11-20T08:53:28.863Z,0.80
2022-11-20T08:55:58.329Z,0.80
2022-11-20T08:58:26.528Z,0.93
2022-11-20T09:00:56.060Z,0.70
2022-11-20T09:03:27.425Z,0.60
2022-11-20T09:06:01.111Z,0.70
2022-11-20T09:08:29.103Z,0.50
2022-11-20T09:10:58.505Z,0.47
2022-11-20T09:13:27.882Z,0.60
2022-11-20T09:15:58.531Z,0.40
2022-11-20T09:18:26.883Z,0.63
2022-11-20T09:20:59.015Z,0.60
2022-11-20T09:23:27.525Z,0.80
2022-11-20T09:26:00.468Z,0.50
2022-11-20T09:28:28.579Z,0.60
2022-11-20T09:30:57.845Z,0.60
2022-11-20T09:33:25.771Z,0.50
2022-11-20T09:35:53.743Z,0.73
2022-11-20T09:38:21.660Z,0.60
2022-11-20T09:40:56.502Z,0.53
2022-11-20T09:43:34.948Z,0.73
2022-11-20T09:46:11.330Z,0.50
2022-11-20T09:48:50.534Z,0.60
2022-11-20T09:51:30.162Z,0.80
2022-11-20T09:54:09.738Z,0.50
2022-11-20T09:56:42.515Z,0.70
2022-11-20T09:59:22.359Z,0.60
2022-11-20T10:01:52.510Z,0.57
2022-11-20T10:04:22.515Z,0.70
2022-11-20T10:07:30.264Z,0.50
2022-11-20T10:09:53.128Z,0.60
2022-11-20T10:12:28.600Z,0.57
2022-11-20T10:15:18.152Z,0.50
2022-11-20T10:18:07.640Z,0.70
2022-11-20T10:20:44.863Z,0.60
2022-11-20T10:23:31.803Z,0.50
2022-11-20T10:26:04.271Z,0.50
2022-11-20T10:28:55.427Z,0.60
2022-11-20T10:31:33.084Z,0.50
2022-11-20T10:34:12.444Z,0.57
2022-11-20T10:36:45.755Z,0.60
2022-11-20T10:39:24.519Z,0.60
2022-11-20T10:41:54.782Z,0.83
2022-11-20T10:44:45.742Z,0.50
2022-11-20T10:47:16.702Z,0.80
2022-11-20T10:49:48.457Z,0.50
2022-11-20T10:52:28.723Z,0.50
2022-11-20T10:55:07.034Z,0.50
2022-11-20T10:57:50.706Z,0.50
2022-11-20T11:00:19.230Z,0.50
2022-11-20T11:02:50.603Z,0.53
2022-11-20T11:05:39.969Z,0.40
2022-11-20T11:08:15.788Z,0.53
2022-11-20T11:10:48.681Z,0.50
2022-11-20T11:13:23.998Z,0.53
2022-11-20T11:15:52.065Z,0.30
2022-11-20T11:18:27.528Z,0.60
2022-11-20T11:20:58.579Z,0.60
2022-11-20T11:23:33.458Z,0.47
2022-11-20T11:26:02.945Z,0.60
2022-11-20T11:28:31.070Z,0.40
2022-11-20T11:30:59.134Z,0.40
2022-11-20T11:33:29.174Z,0.43
2022-11-20T11:36:01.276Z,0.50
2022-11-20T11:38:33.123Z,0.50
2022-11-20T11:41:01.667Z,0.50
2022-11-20T11:43:49.582Z,0.40
2022-11-20T11:46:31.548Z,0.40
2022-11-20T11:49:00.754Z,0.40
2022-11-20T11:51:36.400Z,0.70
2022-11-20T11:54:15.002Z,0.50
2022-11-20T11:56:43.437Z,0.40
2022-11-20T11:59:17.034Z,0.40
2022-11-20T12:01:50.440Z,0.40
2022-11-20T12:04:42.590Z,0.40
2022-11-20T12:07:44.811Z,0.40
2022-11-20T12:10:22.214Z,0.40
2022-11-20T12:12:55.542Z,0.40
2022-11-20T12:15:32.183Z,0.50
2022-11-20T12:18:00.189Z,0.47
2022-11-20T12:20:34.935Z,0.60
2022-11-20T12:23:11.936Z,0.40
2022-11-20T12:25:41.688Z,0.40
2022-11-20T12:28:54.266Z,0.40
2022-11-20T12:32:04.548Z,0.50
2022-11-20T12:34:57.371Z,0.47
2022-11-20T12:37:37.840Z,0.50
2022-11-20T12:40:23.833Z,0.40
2022-11-20T12:43:21.112Z,0.40
2022-11-20T12:46:00.866Z,0.30
2022-11-20T12:48:55.106Z,0.33
2022-11-20T12:51:50.310Z,0.47
2022-11-20T12:54:57.318Z,0.33
2022-11-20T12:57:36.358Z,0.50
2022-11-20T13:00:27.559Z,0.43
2022-11-20T13:03:22.168Z,0.60
2022-11-20T13:06:00.407Z,0.40
2022-11-20T13:08:31.703Z,0.43
2022-11-20T13:11:08.100Z,0.50
2022-11-20T13:13:47.576Z,0.50
2022-11-20T13:16:21.803Z,0.40
2022-11-20T13:18:49.863Z,0.40
2022-11-20T13:21:20.608Z,0.40
2022-11-20T13:23:50.226Z,0.50
2022-11-20T13:26:22.026Z,0.40
2022-11-20T13:29:04.165Z,0.40
2022-11-20T13:31:35.185Z,1.13
2022-11-20T13:34:06.889Z,0.40
2022-11-20T13:36:37.503Z,0.30
2022-11-20T13:39:05.750Z,0.30
2022-11-20T13:41:36.533Z,0.40
2022-11-20T13:44:15.635Z,0.30
2022-11-20T13:46:46.088Z,0.33
2022-11-20T13:49:28.019Z,0.40
2022-11-20T13:52:08.002Z,0.40
2022-11-20T13:55:07.175Z,0.30
2022-11-20T13:58:01.354Z,0.30
2022-11-20T14:00:31.097Z,0.50
2022-11-20T14:03:14.117Z,0.30
2022-11-20T14:05:49.513Z,0.40
2022-11-20T14:08:29.615Z,0.30
2022-11-20T14:11:06.414Z,0.50
2022-11-20T14:13:34.588Z,0.47
2022-11-20T14:16:04.149Z,0.30
2022-11-20T14:18:32.226Z,0.43
2022-11-20T14:21:03.061Z,0.40
2022-11-20T14:23:32.026Z,0.40
2022-11-20T14:26:00.296Z,0.50
2022-11-20T14:28:30.642Z,0.40
2022-11-20T14:31:00.315Z,0.40
2022-11-20T14:33:30.231Z,0.40
2022-11-20T14:36:00.367Z,0.40
2022-11-20T14:38:30.873Z,0.50
2022-11-20T14:41:09.068Z,0.50
2022-11-20T14:43:38.873Z,0.40
2022-11-20T14:46:09.951Z,0.33
2022-11-20T14:48:42.963Z,0.40
2022-11-20T14:51:12.478Z,0.40
2022-11-20T14:53:40.521Z,0.47
2022-11-20T14:56:10.453Z,0.33
2022-11-20T14:58:38.760Z,0.40
2022-11-20T15:01:08.463Z,0.80
2022-11-20T15:03:38.597Z,0.40
2022-11-20T15:06:09.774Z,0.40
2022-11-20T15:08:37.850Z,0.53
2022-11-20T15:11:18.506Z,0.40
2022-11-20T15:13:46.697Z,0.50
2022-11-20T15:16:19.976Z,0.40
2022-11-20T15:18:48.813Z,0.60
2022-11-20T15:21:20.365Z,0.40
2022-11-20T15:23:48.945Z,0.50
2022-11-20T15:26:24.236Z,0.50
2022-11-20T15:28:52.644Z,0.60
2022-11-20T15:31:22.610Z,0.40
2022-11-20T15:33:51.208Z,0.50
2022-11-20T15:36:20.803Z,0.40
2022-11-20T15:38:48.888Z,0.50
2022-11-20T15:41:17.005Z,0.50
2022-11-20T15:43:45.037Z,0.40
2022-11-20T15:46:15.718Z,0.40
2022-11-20T15:48:48.262Z,0.43
2022-11-20T15:51:26.889Z,0.40
2022-11-20T15:53:54.969Z,0.40
2022-11-20T15:56:23.034Z,0.50
2022-11-20T15:58:51.159Z,0.63
2022-11-20T16:01:21.000Z,0.43
2022-11-20T16:03:49.589Z,0.60
2022-11-20T16:06:18.136Z,0.50
2022-11-20T16:08:47.520Z,0.60
2022-11-20T16:11:17.260Z,0.60
2022-11-20T16:14:03.335Z,0.67
2022-11-20T16:16:34.378Z,0.60
2022-11-20T16:19:02.694Z,0.50
2022-11-20T16:21:32.429Z,0.50
2022-11-20T16:24:03.377Z,0.53
2022-11-20T16:26:31.715Z,0.70
2022-11-20T16:29:01.206Z,0.50
2022-11-20T16:31:29.189Z,0.60
2022-11-20T16:33:58.860Z,0.40
2022-11-20T16:36:28.413Z,0.80
2022-11-20T16:38:57.610Z,0.60
2022-11-20T16:41:28.223Z,0.43
2022-11-20T16:43:59.155Z,0.70
2022-11-20T16:46:29.164Z,0.70
2022-11-20T16:48:58.722Z,0.57
2022-11-20T16:51:27.756Z,0.67
2022-11-20T16:53:56.266Z,0.47
2022-11-20T16:56:27.264Z,0.60
2022-11-20T16:58:57.264Z,0.53
2022-11-20T17:01:28.396Z,0.73
2022-11-20T17:03:57.938Z,0.70
2022-11-20T17:06:27.745Z,0.60
2022-11-20T17:08:56.431Z,0.97
2022-11-20T17:11:26.052Z,0.40
2022-11-20T17:13:55.638Z,0.70
2022-11-20T17:16:25.716Z,0.50
2022-11-20T17:19:01.320Z,0.90
2022-11-20T17:21:31.304Z,0.40
2022-11-20T17:24:02.627Z,0.70
2022-11-20T17:26:32.588Z,0.93
2022-11-20T17:29:02.481Z,0.60
2022-11-20T17:31:31.828Z,0.70
2022-11-20T17:34:00.704Z,0.70
2022-11-20T17:36:29.606Z,0.60
2022-11-20T17:38:57.609Z,0.80
2022-11-20T17:41:27.160Z,0.50
2022-11-20T17:43:57.971Z,0.73
2022-11-20T17:46:27.438Z,0.50
2022-11-20T17:48:56.825Z,0.80
2022-11-20T17:51:26.986Z,0.90
2022-11-20T17:53:58.748Z,0.47
2022-11-20T17:56:58.627Z,0.40
2022-11-20T17:59:28.004Z,0.50
2022-11-20T18:01:58.566Z,0.50
2022-11-20T18:04:30.179Z,0.50
2022-11-20T18:06:58.226Z,0.53
2022-11-20T18:09:26.319Z,0.57
2022-11-20T18:11:54.314Z,0.70
2022-11-20T18:14:32.163Z,0.53
2022-11-20T18:17:04.431Z,0.80
2022-11-20T18:19:37.592Z,0.60
2022-11-20T18:22:08.914Z,0.80
2022-11-20T18:24:39.279Z,0.60
2022-11-20T18:27:09.334Z,0.57
2022-11-20T18:29:37.367Z,0.40
2022-11-20T18:32:06.834Z,0.47
2022-11-20T18:34:34.871Z,0.57
2022-11-20T18:37:02.864Z,0.40
2022-11-20T18:39:30.849Z,0.77
2022-11-20T18:42:16.154Z,0.60
2022-11-20T18:44:53.854Z,0.40
2022-11-20T18:47:25.346Z,0.57
2022-11-20T18:49:54.929Z,0.50
2022-11-20T18:52:24.989Z,0.60
2022-11-20T18:54:53.311Z,0.60
2022-11-20T18:57:23.002Z,0.60
2022-11-20T18:59:51.193Z,0.50
2022-11-20T19:02:21.334Z,0.60
2022-11-20T19:04:51.149Z,0.33
2022-11-20T19:07:19.618Z,0.70
2022-11-20T19:09:50.781Z,0.40
2022-11-20T19:12:19.797Z,0.60
2022-11-20T19:14:47.815Z,0.70
2022-11-20T19:17:17.564Z,0.50
2022-11-20T19:19:46.061Z,0.57
2022-11-20T19:22:15.739Z,0.90
2022-11-20T19:24:44.115Z,0.50
2022-11-20T19:27:12.066Z,0.60
2022-11-20T19:29:40.085Z,0.63
2022-11-20T19:32:08.081Z,0.60
2022-11-20T19:34:36.129Z,0.50
2022-11-20T19:37:05.176Z,0.63
2022-11-20T19:39:35.611Z,0.60
2022-11-20T19:42:03.673Z,0.50
2022-11-20T19:44:33.163Z,0.50
2022-11-20T19:47:04.077Z,0.40
2022-11-20T19:49:32.353Z,0.57
2022-11-20T19:52:00.526Z,0.60
2022-11-20T19:54:29.090Z,0.60
2022-11-20T19:56:58.467Z,0.50
2022-11-20T19:59:28.530Z,0.50
2022-11-20T20:01:56.621Z,0.50
2022-11-20T20:04:24.666Z,0.50
2022-11-20T20:06:52.763Z,0.50
2022-11-20T20:09:23.598Z,0.47
2022-11-20T20:11:51.867Z,0.70
2022-11-20T20:14:21.184Z,0.53
2022-11-20T20:16:49.323Z,0.40
2022-11-20T20:19:31.435Z,0.47
2022-11-20T20:22:00.646Z,0.50
2022-11-20T20:24:28.666Z,0.50
2022-11-20T20:26:58.302Z,0.60
2022-11-20T20:29:33.888Z,0.40
2022-11-20T20:32:01.917Z,0.40
2022-11-20T20:34:32.040Z,0.70
2022-11-20T20:37:00.079Z,0.43
2022-11-20T20:39:37.042Z,0.53
2022-11-20T20:42:05.112Z,0.70
2022-11-20T20:45:00.079Z,0.57
2022-11-20T20:47:31.509Z,0.73
2022-11-20T20:49:59.436Z,0.60
2022-11-20T20:52:27.832Z,0.70
2022-11-20T20:54:55.989Z,0.50
2022-11-20T20:57:25.033Z,0.50
2022-11-20T20:59:55.360Z,0.63
2022-11-20T21:02:23.897Z,0.40
2022-11-20T21:04:52.177Z,0.33
2022-11-20T21:07:20.332Z,0.50
2022-11-20T21:09:48.265Z,0.43
2022-11-20T21:12:16.171Z,0.50
2022-11-20T21:14:44.156Z,0.43
2022-11-20T21:17:15.502Z,0.40
2022-11-20T21:19:43.651Z,0.67
2022-11-20T21:22:10.601Z,0.43
2022-11-20T21:24:38.519Z,0.60
2022-11-20T21:27:07.420Z,0.50
2022-11-20T21:29:35.346Z,0.73
2022-11-20T21:32:03.263Z,0.50
2022-11-20T21:34:32.562Z,0.40
2022-11-20T21:37:00.449Z,0.60
2022-11-20T21:39:30.247Z,0.60
2022-11-20T21:41:58.203Z,0.43
2022-11-20T21:44:33.338Z,0.60
2022-11-20T21:47:01.316Z,0.50
2022-11-20T21:49:29.251Z,0.50
2022-11-20T21:51:58.509Z,0.43
2022-11-20T21:54:26.903Z,0.50
2022-11-20T21:56:55.078Z,0.70
2022-11-20T21:59:23.444Z,0.70
2022-11-20T22:01:51.723Z,0.40
2022-11-20T22:04:19.976Z,0.47
2022-11-20T22:06:48.775Z,0.50
2022-11-20T22:09:18.105Z,0.40
2022-11-20T22:11:46.103Z,0.53
2022-11-20T22:14:22.454Z,0.80
2022-11-20T22:16:51.898Z,0.63
2022-11-20T22:19:21.094Z,0.50
2022-11-20T22:21:50.449Z,0.60
2022-11-20T22:24:22.094Z,0.60
2022-11-20T22:26:50.893Z,0.70
2022-11-20T22:29:20.800Z,0.50
2022-11-20T22:31:49.104Z,0.40
2022-11-20T22:34:17.074Z,0.50
2022-11-20T22:36:45.524Z,0.60
2022-11-20T22:39:14.257Z,0.50
2022-11-20T22:41:43.535Z,0.50
2022-11-20T22:44:15.305Z,0.60
2022-11-20T22:46:43.302Z,0.70
2022-11-20T22:49:11.277Z,0.53
2022-11-20T22:51:41.428Z,0.43
2022-11-20T22:54:11.534Z,0.50
2022-11-20T22:56:39.574Z,0.77
2022-11-20T22:59:09.024Z,0.50
2022-11-20T23:01:38.448Z,0.40
2022-11-20T23:04:08.582Z,0.40
2022-11-20T23:06:36.870Z,0.53
2022-11-20T23:09:06.209Z,0.53
2022-11-20T23:11:35.152Z,0.50
2022-11-20T23:14:05.039Z,0.60
2022-11-20T23:16:35.376Z,0.60
2022-11-20T23:19:05.506Z,0.53
2022-11-20T23:21:34.310Z,0.50
2022-11-20T23:24:02.338Z,0.50
2022-11-20T23:26:32.031Z,0.70
2022-11-20T23:29:01.346Z,0.70
2022-11-20T23:31:31.549Z,0.50
2022-11-20T23:34:00.970Z,0.50
2022-11-20T23:36:29.174Z,0.40
2022-11-20T23:38:57.152Z,0.50
2022-11-20T23:41:25.162Z,0.67
2022-11-20T23:43:53.840Z,0.50
2022-11-20T23:46:21.770Z,0.43
2022-11-20T23:48:49.807Z,0.43
2022-11-20T23:51:19.118Z,0.50
2022-11-20T23:53:47.062Z,0.50
2022-11-20T23:56:15.233Z,0.50
2022-11-20T23:58:43.934Z,0.50
